createdAt,value
2023-01-28T00:04:22.916Z,12.77
2023-01-28T00:14:24.235Z,9.82
2023-01-28T00:24:25.571Z,11.93
2023-01-28T00:34:26.859Z,11.00
2023-01-28T00:44:28.267Z,9.43
2023-01-28T00:54:29.981Z,15.57
2023-01-28T01:04:35.361Z,24.63
2023-01-28T01:14:38.812Z,8.60
2023-01-28T01:24:40.082Z,10.40
2023-01-28T01:34:41.364Z,11.05
2023-01-28T01:44:42.590Z,10.68
2023-01-28T01:54:43.805Z,10.70
2023-01-28T02:04:45.136Z,11.13
2023-01-28T02:14:46.405Z,10.30
2023-01-28T02:24:47.638Z,9.15
2023-01-28T02:34:48.883Z,8.95
2023-01-28T02:44:50.102Z,9.93
2023-01-28T02:54:51.310Z,9.57
2023-01-28T03:04:55.801Z,10.52
2023-01-28T03:15:15.886Z,9.88
2023-01-28T03:25:36.002Z,10.27
2023-01-28T03:35:55.984Z,10.95
2023-01-28T03:45:57.233Z,11.07
2023-01-28T03:56:00.697Z,10.88
2023-01-28T04:06:02.006Z,9.20
2023-01-28T04:16:03.464Z,10.88
2023-01-28T04:26:04.774Z,10.23
2023-01-28T04:36:05.992Z,8.73
2023-01-28T04:46:07.245Z,9.73
2023-01-28T04:56:08.518Z,8.45
2023-01-28T05:06:10.407Z,9.40
2023-01-28T05:16:11.617Z,12.15
2023-01-28T05:26:13.297Z,9.35
2023-01-28T05:36:14.510Z,8.38
2023-01-28T05:46:15.735Z,8.32
2023-01-28T05:56:16.956Z,9.85
2023-01-28T06:06:18.256Z,9.32
2023-01-28T06:16:19.490Z,13.85
2023-01-28T06:26:20.769Z,8.73
2023-01-28T06:36:22.060Z,8.18
2023-01-28T06:46:24.279Z,8.75
2023-01-28T06:56:25.567Z,8.10
2023-01-28T07:06:26.807Z,7.72
2023-01-28T07:16:28.022Z,11.20
2023-01-28T07:26:29.262Z,13.18
2023-01-28T07:36:30.492Z,10.13
2023-01-28T07:46:31.723Z,8.13
2023-01-28T07:56:33.092Z,9.05
2023-01-28T08:06:37.952Z,13.73
2023-01-28T08:16:39.227Z,14.43
2023-01-28T08:26:40.476Z,12.27
2023-01-28T08:36:41.708Z,12.68
2023-01-28T08:46:42.957Z,11.88
2023-01-28T08:56:44.936Z,10.98
2023-01-28T09:06:46.221Z,13.27
2023-01-28T09:16:47.428Z,14.00
2023-01-28T09:26:48.661Z,10.77
2023-01-28T09:36:49.880Z,10.27
2023-01-28T09:46:51.099Z,11.50
2023-01-28T09:56:52.476Z,11.88
2023-01-28T10:06:53.849Z,11.75
2023-01-28T10:16:55.090Z,11.40
2023-01-28T10:26:56.313Z,16.70
2023-01-28T10:36:57.683Z,10.68
2023-01-28T10:46:58.920Z,11.77
2023-01-28T10:57:00.132Z,13.40
2023-01-28T11:07:01.463Z,13.90
2023-01-28T11:17:02.704Z,12.63
2023-01-28T11:27:04.137Z,12.15
2023-01-28T11:37:05.852Z,17.30
2023-01-28T11:47:07.168Z,13.63
2023-01-28T11:57:08.613Z,12.73
2023-01-28T12:07:11.230Z,11.90
2023-01-28T12:17:12.515Z,11.55
2023-01-28T12:27:13.744Z,12.80
2023-01-28T12:37:14.974Z,11.30
2023-01-28T12:47:16.209Z,10.23
2023-01-28T12:57:17.705Z,10.27
2023-01-28T13:07:19.000Z,9.05
2023-01-28T13:17:20.223Z,9.18
2023-01-28T13:27:21.487Z,8.95
2023-01-28T13:37:22.730Z,10.35
2023-01-28T13:47:23.964Z,8.02
2023-01-28T13:57:25.185Z,10.23
2023-01-28T14:07:26.485Z,10.32
2023-01-28T14:17:27.733Z,16.23
2023-01-28T14:27:28.959Z,8.63
2023-01-28T15:20:34.326Z,8.98
2023-01-28T16:42:49.476Z,14.23
2023-01-28T16:52:50.950Z,15.38
2023-01-28T17:02:52.291Z,12.45
2023-01-28T17:12:54.470Z,15.05
2023-01-28T17:22:55.724Z,25.38
2023-01-28T17:53:35.127Z,19.83
2023-01-28T18:03:36.365Z,37.25
2023-01-28T18:13:37.709Z,34.55
2023-01-28T18:23:39.063Z,20.83
2023-01-28T18:33:40.299Z,12.60
2023-01-28T20:06:13.459Z,14.43
2023-01-28T20:16:14.732Z,16.63
2023-01-28T20:26:16.082Z,15.13
2023-01-28T20:36:17.519Z,15.75
2023-01-28T20:46:19.360Z,16.48
2023-01-28T20:56:20.671Z,22.83
2023-01-28T21:27:01.334Z,11.73
2023-01-28T21:37:02.614Z,14.85
2023-01-28T21:47:03.880Z,15.88
2023-01-28T21:57:05.146Z,14.45
2023-01-28T22:07:06.475Z,13.25
2023-01-28T23:50:18.765Z,20.73
